createdAt,value
2023-02-11T00:01:14.175Z,52.38
2023-02-11T00:03:42.120Z,52.08
2023-02-11T00:06:11.153Z,51.78
2023-02-11T00:08:39.696Z,51.35
2023-02-11T00:11:12.944Z,51.32
2023-02-11T00:13:41.525Z,51.56
2023-02-11T00:16:10.753Z,51.83
2023-02-11T00:18:38.895Z,51.48
2023-02-11T00:21:12.974Z,51.47
2023-02-11T00:23:40.961Z,51.07
2023-02-11T00:26:19.800Z,50.70
2023-02-11T00:28:48.897Z,50.69
2023-02-11T00:31:19.071Z,50.77
2023-02-11T00:33:47.991Z,51.04
2023-02-11T00:36:17.642Z,51.39
2023-02-11T00:38:48.407Z,51.67
2023-02-11T00:41:18.469Z,51.79
2023-02-11T00:43:47.129Z,51.75
2023-02-11T00:46:16.422Z,51.51
2023-02-11T00:48:44.451Z,51.10
2023-02-11T00:51:12.805Z,50.84
2023-02-11T00:53:41.318Z,50.68
2023-02-11T00:56:09.793Z,50.89
2023-02-11T00:58:37.695Z,51.07
2023-02-11T01:01:05.793Z,51.25
2023-02-11T01:03:36.306Z,51.31
2023-02-11T01:06:05.010Z,51.34
2023-02-11T01:08:33.905Z,51.04
2023-02-11T01:11:03.130Z,50.31
2023-02-11T01:13:31.734Z,49.81
2023-02-11T01:16:00.284Z,49.54
2023-02-11T01:18:28.301Z,49.34
2023-02-11T01:20:56.814Z,49.74
2023-02-11T01:23:25.235Z,50.18
2023-02-11T01:25:53.519Z,50.63
2023-02-11T01:28:26.218Z,50.52
2023-02-11T01:30:55.380Z,50.78
2023-02-11T01:33:24.048Z,51.21
2023-02-11T01:35:52.321Z,51.50
2023-02-11T01:38:22.656Z,51.85
2023-02-11T01:40:53.071Z,52.10
2023-02-11T01:43:21.918Z,52.29
2023-02-11T01:46:03.379Z,52.60
2023-02-11T01:48:51.848Z,53.26
2023-02-11T01:51:29.193Z,53.87
2023-02-11T01:53:57.812Z,53.71
2023-02-11T01:56:27.674Z,53.91
2023-02-11T01:58:59.472Z,54.07
2023-02-11T02:01:29.360Z,53.75
2023-02-11T02:04:01.248Z,54.00
2023-02-11T02:06:33.565Z,54.16
2023-02-11T02:09:06.423Z,54.11
2023-02-11T02:11:34.646Z,54.22
2023-02-11T02:14:03.095Z,54.31
2023-02-11T02:16:35.937Z,54.25
2023-02-11T02:19:19.331Z,54.04
2023-02-11T02:22:07.599Z,54.21
2023-02-11T02:24:41.391Z,54.25
2023-02-11T02:27:09.496Z,54.36
2023-02-11T02:29:55.941Z,54.52
2023-02-11T02:32:33.455Z,54.47
2023-02-11T02:35:20.149Z,54.67
2023-02-11T02:37:52.465Z,54.50
2023-02-11T02:40:23.896Z,54.63
2023-02-11T02:42:53.437Z,54.79
2023-02-11T02:45:22.353Z,54.84
2023-02-11T02:47:50.787Z,54.87
2023-02-11T02:50:22.600Z,54.89
2023-02-11T02:53:08.633Z,55.20
2023-02-11T02:55:39.894Z,55.27
2023-02-11T02:58:32.212Z,55.24
2023-02-11T03:01:20.554Z,55.23
2023-02-11T03:03:48.642Z,55.32
2023-02-11T03:06:26.494Z,55.22
2023-02-11T03:08:57.592Z,55.15
2023-02-11T03:11:26.184Z,55.13
2023-02-11T03:13:56.438Z,55.18
2023-02-11T03:16:28.490Z,55.29
2023-02-11T03:19:03.589Z,55.31
2023-02-11T03:21:33.294Z,55.38
2023-02-11T03:24:06.496Z,55.36
2023-02-11T03:26:40.608Z,55.39
2023-02-11T03:29:17.759Z,55.40
2023-02-11T03:31:54.836Z,55.37
2023-02-11T03:34:28.417Z,55.49
2023-02-11T03:37:00.754Z,55.55
2023-02-11T03:39:46.005Z,55.60
2023-02-11T03:42:14.811Z,55.55
2023-02-11T03:45:05.439Z,55.62
2023-02-11T03:47:35.546Z,55.61
2023-02-11T03:50:06.568Z,55.69
2023-02-11T03:52:37.162Z,55.59
2023-02-11T03:55:09.121Z,55.73
2023-02-11T03:57:38.013Z,55.60
2023-02-11T04:00:07.130Z,55.93
2023-02-11T04:02:36.223Z,55.86
2023-02-11T04:05:06.411Z,55.93
2023-02-11T04:07:35.318Z,56.03
2023-02-11T04:10:03.696Z,56.17
2023-02-11T04:12:33.499Z,56.19
2023-02-11T04:15:01.386Z,56.26
2023-02-11T04:17:30.255Z,56.28
2023-02-11T04:19:58.351Z,56.12
2023-02-11T04:22:26.862Z,56.18
2023-02-11T04:24:54.870Z,56.19
2023-02-11T04:27:23.031Z,56.19
2023-02-11T04:29:51.469Z,56.21
2023-02-11T04:32:20.484Z,56.24
2023-02-11T04:34:49.835Z,56.17
2023-02-11T04:37:17.779Z,56.22
2023-02-11T04:39:45.889Z,56.20
2023-02-11T04:42:14.237Z,56.24
2023-02-11T04:44:43.513Z,56.20
2023-02-11T04:47:12.984Z,56.19
2023-02-11T04:49:41.181Z,56.13
2023-02-11T04:52:09.732Z,56.25
2023-02-11T04:54:37.853Z,56.19
2023-02-11T04:57:06.894Z,56.20
2023-02-11T04:59:34.894Z,56.20
2023-02-11T05:02:02.897Z,56.10
2023-02-11T05:04:30.908Z,56.02
2023-02-11T05:06:59.494Z,55.94
2023-02-11T05:09:27.461Z,55.84
2023-02-11T05:11:55.534Z,55.94
2023-02-11T05:14:23.462Z,55.80
2023-02-11T05:16:52.945Z,55.84
2023-02-11T05:19:21.451Z,55.90
2023-02-11T05:22:01.636Z,55.87
2023-02-11T05:24:31.661Z,55.83
2023-02-11T05:27:00.167Z,55.81
2023-02-11T05:29:29.167Z,55.58
2023-02-11T05:31:58.940Z,55.51
2023-02-11T05:34:27.075Z,55.35
2023-02-11T05:36:55.170Z,55.13
2023-02-11T05:39:23.283Z,54.87
2023-02-11T05:41:51.272Z,54.90
2023-02-11T05:44:19.430Z,54.73
2023-02-11T05:46:47.942Z,54.70
2023-02-11T05:49:17.181Z,54.57
2023-02-11T05:51:45.232Z,54.64
2023-02-11T05:54:13.572Z,54.63
2023-02-11T05:56:43.788Z,54.60
2023-02-11T05:59:14.111Z,54.54
2023-02-11T06:01:43.388Z,54.56
2023-02-11T06:04:11.477Z,54.51
2023-02-11T06:06:39.472Z,54.55
2023-02-11T06:09:07.788Z,54.49
2023-02-11T06:11:35.866Z,54.43
2023-02-11T06:14:03.898Z,54.57
2023-02-11T06:16:31.928Z,54.82
2023-02-11T06:19:01.589Z,54.76
2023-02-11T06:21:42.762Z,54.82
2023-02-11T06:24:12.031Z,54.88
2023-02-11T06:26:40.195Z,54.88
2023-02-11T06:29:08.157Z,55.17
2023-02-11T06:31:37.309Z,55.02
2023-02-11T06:34:06.151Z,55.22
2023-02-11T06:36:34.884Z,55.15
2023-02-11T06:39:03.076Z,55.12
2023-02-11T06:41:31.886Z,55.22
2023-02-11T06:44:00.009Z,55.45
2023-02-11T06:46:28.206Z,55.42
2023-02-11T06:48:56.307Z,55.46
2023-02-11T06:51:24.267Z,55.51
2023-02-11T06:53:52.407Z,55.52
2023-02-11T06:56:22.410Z,55.66
2023-02-11T06:58:55.384Z,55.74
2023-02-11T07:01:24.233Z,55.78
2023-02-11T07:03:53.368Z,55.92
2023-02-11T07:06:23.096Z,55.89
2023-02-11T07:08:51.310Z,55.97
2023-02-11T07:11:20.650Z,55.95
2023-02-11T07:13:48.687Z,55.97
2023-02-11T07:16:18.247Z,56.01
2023-02-11T07:18:47.131Z,55.95
2023-02-11T07:21:16.189Z,55.97
2023-02-11T07:23:45.661Z,55.86
2023-02-11T07:26:15.113Z,55.63
2023-02-11T07:28:43.837Z,55.41
2023-02-11T07:31:13.800Z,55.33
2023-02-11T07:33:42.289Z,55.13
2023-02-11T07:36:10.813Z,55.02
2023-02-11T07:38:39.757Z,55.09
2023-02-11T07:41:09.194Z,54.96
2023-02-11T07:43:37.889Z,54.94
2023-02-11T07:46:08.518Z,54.99
2023-02-11T07:48:36.509Z,54.85
2023-02-11T07:51:35.859Z,54.90
2023-02-11T07:54:04.360Z,54.86
2023-02-11T07:56:32.684Z,54.95
2023-02-11T07:59:02.469Z,54.96
2023-02-11T08:01:30.622Z,54.95
2023-02-11T08:03:59.388Z,55.08
2023-02-11T08:06:29.575Z,54.96
2023-02-11T08:08:57.700Z,54.89
2023-02-11T08:11:27.326Z,54.87
2023-02-11T08:13:56.024Z,54.76
2023-02-11T08:16:31.717Z,54.76
2023-02-11T08:19:01.507Z,54.70
2023-02-11T08:21:30.357Z,54.75
2023-02-11T08:23:59.193Z,54.65
2023-02-11T08:26:29.017Z,54.57
2023-02-11T08:28:57.955Z,54.49
2023-02-11T08:31:28.003Z,54.53
2023-02-11T08:33:56.684Z,54.68
2023-02-11T08:36:29.844Z,54.57
2023-02-11T08:39:16.137Z,54.70
2023-02-11T08:41:48.025Z,54.93
2023-02-11T08:44:17.178Z,55.00
2023-02-11T08:46:46.674Z,55.16
2023-02-11T08:49:14.971Z,55.14
2023-02-11T08:51:43.522Z,55.20
2023-02-11T08:54:12.297Z,55.30
2023-02-11T08:56:40.858Z,55.65
2023-02-11T08:59:09.422Z,55.75
2023-02-11T09:01:38.338Z,55.78
2023-02-11T09:04:06.575Z,56.19
2023-02-11T09:06:34.583Z,56.39
2023-02-11T09:09:02.772Z,56.42
2023-02-11T09:11:50.574Z,56.44
2023-02-11T09:14:20.753Z,56.71
2023-02-11T09:16:48.962Z,56.31
2023-02-11T09:19:17.856Z,56.53
2023-02-11T09:21:47.237Z,56.86
2023-02-11T09:24:15.827Z,57.04
2023-02-11T09:26:45.034Z,57.38
2023-02-11T09:29:13.433Z,57.75
2023-02-11T09:31:41.496Z,58.13
2023-02-11T09:34:10.948Z,59.00
2023-02-11T09:36:39.826Z,59.54
2023-02-11T09:39:11.883Z,59.98
2023-02-11T09:41:48.877Z,60.37
2023-02-11T09:44:20.608Z,61.31
2023-02-11T09:46:54.269Z,61.92
2023-02-11T09:49:25.379Z,62.50
2023-02-11T09:51:58.091Z,63.63
2023-02-11T09:54:29.552Z,64.23
2023-02-11T09:56:57.493Z,64.73
2023-02-11T09:59:25.779Z,65.32
2023-02-11T10:01:57.994Z,66.42
2023-02-11T10:04:35.374Z,67.68
2023-02-11T10:07:03.464Z,68.53
2023-02-11T10:09:34.030Z,68.77
2023-02-11T10:12:17.338Z,69.26
2023-02-11T10:14:51.437Z,70.14
2023-02-11T10:17:30.199Z,69.88
2023-02-11T10:20:06.336Z,70.17
2023-02-11T10:22:45.694Z,70.93
2023-02-11T10:25:25.901Z,70.95
2023-02-11T10:27:56.502Z,70.92
2023-02-11T10:30:27.841Z,70.31
2023-02-11T10:33:01.383Z,69.90
2023-02-11T10:35:29.567Z,69.23
2023-02-11T10:37:57.522Z,68.57
2023-02-11T10:40:27.731Z,68.52
2023-02-11T10:42:58.209Z,68.01
2023-02-11T10:45:42.309Z,67.48
2023-02-11T10:48:29.242Z,66.86
2023-02-11T10:51:24.196Z,66.12
2023-02-11T10:54:04.364Z,65.53
2023-02-11T10:56:34.359Z,65.57
2023-02-11T10:59:05.838Z,64.94
2023-02-11T11:01:46.260Z,64.96
2023-02-11T11:04:29.781Z,65.14
2023-02-11T11:07:09.985Z,64.03
2023-02-11T11:09:58.055Z,63.17
2023-02-11T11:12:26.639Z,63.02
2023-02-11T11:14:56.763Z,62.64
2023-02-11T11:17:24.907Z,62.75
2023-02-11T11:20:15.417Z,61.72
2023-02-11T11:22:44.228Z,59.94
2023-02-11T11:25:26.378Z,59.31
2023-02-11T11:27:59.141Z,57.21
2023-02-11T11:30:33.187Z,57.24
2023-02-11T11:33:01.562Z,56.19
2023-02-11T11:35:31.073Z,52.97
2023-02-11T11:38:02.019Z,51.81
2023-02-11T11:40:31.595Z,51.80
2023-02-11T11:43:15.457Z,51.42
2023-02-11T11:45:57.608Z,51.08
2023-02-11T11:48:26.030Z,52.23
2023-02-11T11:50:56.575Z,52.25
2023-02-11T11:53:32.198Z,52.66
2023-02-11T11:56:00.171Z,52.77
2023-02-11T11:58:29.213Z,53.06
2023-02-11T12:01:09.425Z,53.72
2023-02-11T12:03:56.385Z,55.00
2023-02-11T12:06:31.262Z,55.71
2023-02-11T12:09:09.414Z,56.40
2023-02-11T12:12:09.852Z,56.67
2023-02-11T12:14:43.401Z,56.80
2023-02-11T12:17:22.393Z,56.49
2023-02-11T12:19:56.533Z,56.51
2023-02-11T12:22:36.924Z,55.86
2023-02-11T12:25:24.139Z,55.33
2023-02-11T12:28:12.770Z,55.28
2023-02-11T12:30:46.555Z,55.42
2023-02-11T12:33:31.860Z,54.84
2023-02-11T12:36:06.319Z,53.99
2023-02-11T12:38:52.820Z,53.41
2023-02-11T12:41:43.862Z,53.12
2023-02-11T12:44:22.221Z,52.60
2023-02-11T12:47:13.191Z,52.42
2023-02-11T12:49:55.094Z,52.73
2023-02-11T12:52:34.875Z,53.42
2023-02-11T12:55:08.764Z,54.05
2023-02-11T12:57:38.837Z,54.10
2023-02-11T13:00:21.623Z,54.78
2023-02-11T13:02:54.592Z,54.09
2023-02-11T13:05:43.244Z,54.27
2023-02-11T13:08:20.058Z,53.82
2023-02-11T13:10:51.003Z,52.20
2023-02-11T13:13:36.230Z,52.30
2023-02-11T13:16:06.348Z,52.01
2023-02-11T13:18:49.234Z,52.41
2023-02-11T13:21:34.237Z,52.19
2023-02-11T13:24:11.298Z,51.61
2023-02-11T13:26:43.063Z,51.64
2023-02-11T13:29:30.037Z,51.70
2023-02-11T13:32:14.388Z,50.98
2023-02-11T13:34:45.391Z,51.28
2023-02-11T13:37:24.201Z,51.60
2023-02-11T13:39:56.471Z,51.50
2023-02-11T13:42:25.616Z,50.93
2023-02-11T13:44:54.499Z,50.98
2023-02-11T13:47:28.162Z,51.31
2023-02-11T13:49:57.513Z,51.47
2023-02-11T13:52:28.337Z,50.61
2023-02-11T13:54:58.613Z,51.01
2023-02-11T13:57:30.057Z,50.75
2023-02-11T14:00:00.234Z,51.47
2023-02-11T14:02:35.970Z,50.92
2023-02-11T14:05:04.431Z,50.50
2023-02-11T14:07:33.321Z,50.49
2023-02-11T14:10:01.428Z,50.68
2023-02-11T14:12:34.008Z,50.87
2023-02-11T14:15:18.060Z,51.45
2023-02-11T14:17:46.045Z,51.19
2023-02-11T14:20:35.252Z,51.49
2023-02-11T14:23:04.437Z,51.81
2023-02-11T14:25:32.892Z,51.76
2023-02-11T14:28:00.941Z,51.74
2023-02-11T14:30:39.174Z,51.70
2023-02-11T14:33:16.237Z,51.41
2023-02-11T14:35:44.405Z,51.71
2023-02-11T14:38:25.191Z,51.96
2023-02-11T14:40:55.690Z,50.98
2023-02-11T14:43:30.609Z,50.63
2023-02-11T14:45:58.955Z,50.13
2023-02-11T14:48:33.053Z,50.46
2023-02-11T14:51:06.573Z,49.73
2023-02-11T14:53:35.854Z,50.27
2023-02-11T14:56:16.730Z,49.90
2023-02-11T14:58:48.767Z,49.27
2023-02-11T15:01:43.215Z,49.41
2023-02-11T15:04:31.611Z,49.00
2023-02-11T15:07:07.047Z,49.81
2023-02-11T15:10:01.442Z,49.51
2023-02-11T15:12:30.526Z,48.87
2023-02-11T15:15:00.679Z,49.04
2023-02-11T15:17:32.110Z,49.41
2023-02-11T15:20:02.143Z,49.60
2023-02-11T15:22:33.442Z,49.16
2023-02-11T15:25:03.701Z,48.97
2023-02-11T15:27:46.208Z,48.97
2023-02-11T15:30:28.767Z,49.14
2023-02-11T15:33:04.627Z,50.15
2023-02-11T15:35:34.790Z,50.23
2023-02-11T15:38:03.598Z,49.99
2023-02-11T15:40:33.485Z,50.03
2023-02-11T15:43:03.261Z,50.24
2023-02-11T15:45:34.844Z,50.29
2023-02-11T15:48:02.806Z,50.34
2023-02-11T15:50:33.495Z,50.76
2023-02-11T15:53:05.163Z,51.10
2023-02-11T15:55:33.328Z,51.14
2023-02-11T15:58:02.197Z,50.92
2023-02-11T16:00:36.480Z,50.53
2023-02-11T16:03:04.838Z,50.84
2023-02-11T16:05:34.907Z,51.31
2023-02-11T16:08:26.492Z,51.33
2023-02-11T16:10:56.830Z,51.55
2023-02-11T16:13:26.077Z,52.16
2023-02-11T16:16:01.099Z,52.40
2023-02-11T16:18:38.140Z,52.52
2023-02-11T16:21:14.566Z,52.91
2023-02-11T16:23:43.704Z,53.04
2023-02-11T16:26:20.053Z,53.37
2023-02-11T16:28:49.009Z,53.56
2023-02-11T16:31:17.637Z,53.98
2023-02-11T16:33:46.264Z,53.61
2023-02-11T16:36:16.342Z,53.56
2023-02-11T16:38:44.487Z,53.77
2023-02-11T16:41:13.625Z,54.29
2023-02-11T16:43:42.446Z,54.13
2023-02-11T16:46:14.315Z,54.53
2023-02-11T16:48:42.428Z,54.92
2023-02-11T16:51:11.791Z,55.03
2023-02-11T16:53:40.224Z,54.97
2023-02-11T16:56:12.227Z,55.40
2023-02-11T16:58:40.391Z,55.35
2023-02-11T17:01:08.714Z,55.25
2023-02-11T17:03:39.055Z,55.52
2023-02-11T17:06:09.810Z,55.38
2023-02-11T17:08:38.477Z,56.09
2023-02-11T17:11:06.604Z,56.01
2023-02-11T17:13:34.676Z,56.14
2023-02-11T17:16:03.465Z,55.95
2023-02-11T17:18:32.247Z,55.71
2023-02-11T17:21:01.107Z,55.88
2023-02-11T17:23:29.484Z,55.74
2023-02-11T17:25:57.478Z,54.94
2023-02-11T17:28:25.620Z,55.04
2023-02-11T17:30:54.003Z,55.43
2023-02-11T17:33:23.139Z,55.02
2023-02-11T17:35:51.647Z,54.97
2023-02-11T17:38:20.447Z,54.89
2023-02-11T17:40:56.860Z,54.96
2023-02-11T17:43:25.120Z,54.94
2023-02-11T17:45:53.814Z,55.13
2023-02-11T17:48:22.848Z,55.31
2023-02-11T17:50:51.213Z,55.48
2023-02-11T17:53:19.248Z,55.75
2023-02-11T17:55:47.443Z,55.89
2023-02-11T17:58:16.013Z,56.05
2023-02-11T18:00:44.577Z,55.98
2023-02-11T18:03:12.767Z,56.09
2023-02-11T18:05:40.739Z,55.63
2023-02-11T18:08:08.638Z,55.31
2023-02-11T18:10:36.896Z,55.14
2023-02-11T18:13:06.223Z,55.82
2023-02-11T18:15:34.513Z,56.02
2023-02-11T18:18:03.035Z,56.45
2023-02-11T18:20:31.199Z,56.39
2023-02-11T18:23:00.330Z,56.81
2023-02-11T18:25:31.935Z,56.52
2023-02-11T18:27:59.892Z,56.80
2023-02-11T18:30:28.497Z,56.88
2023-02-11T18:32:57.587Z,57.37
2023-02-11T18:35:25.625Z,57.30
2023-02-11T18:37:53.684Z,57.57
2023-02-11T18:40:22.437Z,57.36
2023-02-11T18:42:51.805Z,57.29
2023-02-11T18:45:19.970Z,57.61
2023-02-11T18:47:48.675Z,57.89
2023-02-11T18:50:16.699Z,58.07
2023-02-11T18:52:44.787Z,57.74
2023-02-11T18:55:13.345Z,58.32
2023-02-11T18:57:41.276Z,58.44
2023-02-11T19:00:10.687Z,58.75
2023-02-11T19:02:39.261Z,58.07
2023-02-11T19:05:07.359Z,57.99
2023-02-11T19:07:35.767Z,57.88
2023-02-11T19:10:05.185Z,57.61
2023-02-11T19:12:33.421Z,57.46
2023-02-11T19:15:01.586Z,57.42
2023-02-11T19:17:29.542Z,56.97
2023-02-11T19:19:57.534Z,56.88
2023-02-11T19:22:25.551Z,56.47
2023-02-11T19:24:53.560Z,56.24
2023-02-11T19:27:21.505Z,56.12
2023-02-11T19:29:49.509Z,56.23
2023-02-11T19:32:17.818Z,56.25
2023-02-11T19:34:45.822Z,56.74
2023-02-11T19:37:13.857Z,56.81
2023-02-11T19:39:43.314Z,56.21
2023-02-11T19:42:12.511Z,56.49
2023-02-11T19:44:41.183Z,56.12
2023-02-11T19:47:09.556Z,56.11
2023-02-11T19:49:37.539Z,55.98
2023-02-11T19:52:05.523Z,55.91
2023-02-11T19:54:33.944Z,56.05
2023-02-11T19:57:02.415Z,56.26
2023-02-11T19:59:30.409Z,56.05
2023-02-11T20:01:58.460Z,55.52
2023-02-11T20:04:26.403Z,55.73
2023-02-11T20:06:54.964Z,55.61
2023-02-11T20:09:23.313Z,56.06
2023-02-11T20:11:52.015Z,55.88
2023-02-11T20:14:20.023Z,55.80
2023-02-11T20:16:49.926Z,55.94
2023-02-11T20:19:20.267Z,56.03
2023-02-11T20:21:49.746Z,56.29
2023-02-11T20:24:18.247Z,55.85
2023-02-11T20:26:46.401Z,55.67
2023-02-11T20:29:18.345Z,55.37
2023-02-11T20:31:46.652Z,55.50
2023-02-11T20:34:14.928Z,55.63
2023-02-11T20:36:44.185Z,55.78
2023-02-11T20:39:12.070Z,55.59
2023-02-11T20:41:45.803Z,55.59
2023-02-11T20:44:14.399Z,55.90
2023-02-11T20:46:44.382Z,55.91
2023-02-11T20:49:14.256Z,55.98
2023-02-11T20:51:42.675Z,56.23
2023-02-11T20:54:15.961Z,56.56
2023-02-11T20:56:47.457Z,56.69
2023-02-11T20:59:15.929Z,56.30
2023-02-11T21:01:48.905Z,56.41
2023-02-11T21:04:19.293Z,56.41
2023-02-11T21:06:51.795Z,56.23
2023-02-11T21:09:21.525Z,56.32
2023-02-11T21:11:51.046Z,56.44
2023-02-11T21:14:19.961Z,57.22
2023-02-11T21:16:48.469Z,57.55
2023-02-11T21:19:17.277Z,57.41
2023-02-11T21:21:45.182Z,57.05
2023-02-11T21:24:14.834Z,56.94
2023-02-11T21:26:42.751Z,56.83
2023-02-11T21:29:10.791Z,56.76
2023-02-11T21:31:40.713Z,56.79
2023-02-11T21:34:10.308Z,56.57
2023-02-11T21:36:39.241Z,56.51
2023-02-11T21:39:07.862Z,56.42
2023-02-11T21:41:35.903Z,56.72
2023-02-11T21:44:04.384Z,56.25
2023-02-11T21:46:33.056Z,55.99
2023-02-11T21:49:01.314Z,55.79
2023-02-11T21:51:30.570Z,56.05
2023-02-11T21:54:00.714Z,56.36
2023-02-11T21:56:29.958Z,56.37
2023-02-11T21:58:58.809Z,56.43
2023-02-11T22:01:28.389Z,56.33
2023-02-11T22:03:56.820Z,56.55
2023-02-11T22:06:26.906Z,56.86
2023-02-11T22:08:55.510Z,57.03
2023-02-11T22:11:23.530Z,57.24
2023-02-11T22:13:55.088Z,57.34
2023-02-11T22:16:23.737Z,57.41
2023-02-11T22:18:52.312Z,57.70
2023-02-11T22:21:21.897Z,57.81
2023-02-11T22:23:50.502Z,57.70
2023-02-11T22:26:21.012Z,57.20
2023-02-11T22:28:53.596Z,57.42
2023-02-11T22:31:28.248Z,57.23
2023-02-11T22:33:57.086Z,57.57
2023-02-11T22:36:26.479Z,57.65
2023-02-11T22:38:55.318Z,57.87
2023-02-11T22:41:25.680Z,57.67
2023-02-11T22:43:53.627Z,57.52
2023-02-11T22:46:21.713Z,57.32
2023-02-11T22:48:50.229Z,57.33
2023-02-11T22:51:23.537Z,57.18
2023-02-11T22:53:55.722Z,57.00
2023-02-11T22:56:24.635Z,56.88
2023-02-11T22:58:53.374Z,56.62
2023-02-11T23:01:21.417Z,57.25
2023-02-11T23:03:49.554Z,57.18
2023-02-11T23:06:17.669Z,56.99
2023-02-11T23:08:47.339Z,57.01
2023-02-11T23:11:17.227Z,57.09
2023-02-11T23:13:46.084Z,57.29
2023-02-11T23:16:16.570Z,57.58
2023-02-11T23:18:45.751Z,57.58
2023-02-11T23:21:15.665Z,57.67
2023-02-11T23:23:44.950Z,57.37
2023-02-11T23:26:14.331Z,57.02
2023-02-11T23:28:43.062Z,56.92
2023-02-11T23:31:19.923Z,56.79
2023-02-11T23:33:48.634Z,56.63
2023-02-11T23:36:18.069Z,56.60
2023-02-11T23:38:46.256Z,56.83
2023-02-11T23:41:14.500Z,57.00
2023-02-11T23:43:43.620Z,56.66
2023-02-11T23:46:11.822Z,56.18
2023-02-11T23:48:40.014Z,56.48
2023-02-11T23:51:08.494Z,56.32
2023-02-11T23:53:37.128Z,56.33
2023-02-11T23:56:13.830Z,56.79
2023-02-11T23:58:42.260Z,57.19
